Meteo Giornale » Osservazioni meteo Stati Uniti (USA) » Norfolk-Hampton

ore: 16:56 - Osservazioni Meteo Norfolk-Hampton
Lat. 36° 47' N Lon. 76° 27' W Alt. 7 metri s.l.m.

nuvoloso_temporali

24 °C

Temporale

Temp. 24 Ore

19 °C

34 °C

Nord

0 Km/h

Dew point 24 °C

Umidità 100 %

Visibilità  10 Km

Il sole sorge alle ore 06:36

Il sole tramonta alle ore 19:35

Data e Ora Cielo e Fenomeni T °C DP °C Um. % Pres. hPa Vis. km Vento km/h
Oggi h: 16:56 nuvoloso_temporali Temporale 24 24 100 1018 10 N 0
Oggi h: 16:55 coperto_temporali Temporale 24 24 100 1018 10 N 0
Oggi h: 16:45 nuvoloso_temporali Temporale nelle vicinanze Pioggia 25 24 94 1018 10 N 9.3
Oggi h: 15:56 nuvoloso Nuvoloso 33 21 49 1018 10 S 13
Oggi h: 15:55 nuvoloso Nuvoloso 33 21 49 1018 10 S/SE 13
Oggi h: 14:56 poco_nuvoloso Poco Nuvoloso 33 22 52 1018 10 N 5.5
Oggi h: 14:55 poco_nuvoloso Poco Nuvoloso 33 21 49 1018 10 S 7.4
Oggi h: 13:56 sereno Sereno 34 21 46 1018 10 N 0
Oggi h: 13:55 sereno Sereno 33 21 49 1018 10 N 5.5
Oggi h: 12:56 sereno Sereno 33 22 52 1019 10 N 0
Oggi h: 12:55 sereno Sereno 33 22 52 1019 10 N 0
Oggi h: 11:56 sereno Sereno 32 22 55 1019 10 N 0
Oggi h: 11:55 sereno Sereno 32 22 55 1019 10 N 5.5
Oggi h: 10:56 sereno Sereno 31 23 62 1020 10 NO 7.4
Oggi h: 10:55 sereno Sereno 31 23 62 1020 10 NO 7.4
Oggi h: 09:56 sereno Sereno 28 24 78 1019 10 N 5.5
Oggi h: 09:55 sereno Sereno 28 24 78 1019 10 O/SO 7.4
Oggi h: 08:56 sereno Sereno 25 24 94 1019 10 N 5.5
Oggi h: 08:55 sereno Sereno 25 24 94 1019 10 N 5.5
Oggi h: 07:56 sereno Sereno 22 0 23 1019 10 N 0
Oggi h: 07:55 sereno Sereno 22 0 23 1019 10 N 0
Oggi h: 07:07 sereno Sereno 20 0 26 1019 6 N 0
Oggi h: 07:06 foschia Foschia 20 0 26 1019 6 N 0
Oggi h: 07:03 poco_nuvoloso Poco Nuvoloso 20 0 26 1019 3 N 0
Oggi h: 07:01 foschia Foschia 20 0 26 1019 2 N 0
Oggi h: 06:56 foschia Foschia 20 0 26 1019 5 N 0
Oggi h: 06:55 nebbia Cielo Invisibile 20 0 26 1019 5 N 0
Oggi h: 06:52 nebbia Cielo Invisibile 20 0 26 1019 5 N 0
Oggi h: 06:51 foschia Foschia 20 0 26 1019 5 N 0
Oggi h: 06:50 poco_nuvoloso Poco Nuvoloso 20 0 26 1019 2 N 0
Oggi h: 06:47 poco_nuvoloso Poco Nuvoloso 20 0 26 1019 3 N 0
Oggi h: 06:46 poco_nuvoloso Poco Nuvoloso 20 0 26 1019 5 N 0
Oggi h: 06:45 foschia Foschia 20 0 26 1019 5 N 0
Oggi h: 06:41 nebbia Cielo Invisibile 19 0 27 1019 2 N 0
Oggi h: 06:36 nebbia Nebbia 19 0 27 1019 2 N 0
Oggi h: 06:35 sereno Sereno 20 0 26 1019 2 N 0
Oggi h: 06:30 nebbia Nebbia 20 0 26 1019 2 N 0
Oggi h: 06:29 nebbia Cielo Invisibile 20 0 26 1019 5 N 0
Oggi h: 06:27 foschia Foschia 20 0 26 1019 2 N 0
Oggi h: 06:26 poco_nuvoloso Poco Nuvoloso 19 0 27 1019 5 N 0
Oggi h: 06:23 poco_nuvoloso Poco Nuvoloso 19 0 27 1019 3 N 0
Oggi h: 06:22 foschia Foschia 19 0 27 1019 3 N 0
Oggi h: 06:20 nebbia Cielo Invisibile 20 0 26 1019 2 N 0
Oggi h: 06:19 foschia Foschia 20 0 26 1019 2 N 0
Oggi h: 06:10 molto_nuvoloso Molto Nuvoloso 20 0 26 1019 5 N 0
Oggi h: 06:08 molto_nuvoloso Molto Nuvoloso 20 0 26 1019 2 N 0
Oggi h: 05:57 molto_nuvoloso Molto Nuvoloso 20 0 26 1019 5 N 0
Oggi h: 05:56 foschia Foschia 20 0 26 1019 5 N 0
Oggi h: 05:55 molto_nuvoloso Molto Nuvoloso 20 0 26 1019 2 N 0
Oggi h: 05:54 molto_nuvoloso Molto Nuvoloso 21 0 24 1019 5 N 0
Oggi h: 05:53 molto_nuvoloso Molto Nuvoloso 21 0 24 1019 2 N 0
Oggi h: 05:51 molto_nuvoloso Molto Nuvoloso 21 0 24 1019 5 N 0
Oggi h: 05:47 foschia Foschia 21 0 24 1019 2 N 0
Oggi h: 05:42 poco_nuvoloso Poco Nuvoloso 21 0 24 1019 2 N 0
Oggi h: 05:40 sereno Sereno 21 0 24 1019 2 N 0
Oggi h: 05:39 foschia Foschia 21 0 24 1019 5 N 0
Oggi h: 05:38 sereno Sereno 21 0 24 1019 3 N 0
Oggi h: 05:30 sereno Sereno 19 0 27 1019 5 N 0
Oggi h: 05:29 foschia Foschia 19 0 27 1019 5 N 0
Oggi h: 05:18 foschia Foschia 21 0 24 1019 10 N 0
Oggi h: 05:13 sereno Sereno 21 0 24 1019 2 N 0
Oggi h: 05:12 sereno Sereno 21 0 24 1019 2 N 0
Oggi h: 05:11 foschia Foschia 21 0 24 1019 2 N 0
Oggi h: 05:08 sereno Sereno 21 0 24 1019 2 N 0
Oggi h: 05:06 foschia Foschia 21 0 24 1019 5 N 0
Oggi h: 05:01 sereno Sereno 20 0 26 1019 5 N 0
Oggi h: 04:56 foschia Foschia 21 0 24 1019 2 N 0
Oggi h: 04:55 sereno Sereno 21 0 24 1019 2 N 0
Oggi h: 04:52 sereno Sereno 21 0 24 1019 2 N 0
Oggi h: 04:50 sereno Sereno 20 0 26 1019 5 N 0
Oggi h: 04:45 sereno Sereno 20 0 26 1019 5 N 0
Oggi h: 04:44 foschia Foschia 20 0 26 1019 5 N 0
Oggi h: 04:11 poco_nuvoloso Poco Nuvoloso 20 0 26 1019 2 N 0
Oggi h: 04:10 foschia Foschia 20 0 26 1019 5 N 0
Oggi h: 04:08 foschia Foschia 20 0 26 1019 2 N 0
Oggi h: 03:57 nebbia Cielo Invisibile 20 0 26 1019 5 N 0
Oggi h: 03:56 foschia Foschia 20 0 26 1019 5 N 0
Oggi h: 03:55 poco_nuvoloso Poco Nuvoloso 20 0 26 1019 2 N 0
Oggi h: 03:54 sereno Sereno 20 0 26 1019 5 N 0
Oggi h: 03:53 foschia Foschia 20 0 26 1019 5 N 0
Oggi h: 03:52 sereno Sereno 20 0 26 1019 2 N 0
Oggi h: 03:45 sereno Sereno 21 0 24 1019 5 N 0
Oggi h: 03:44 foschia Foschia 21 0 24 1019 5 N 0
Oggi h: 03:40 sereno Sereno 21 0 24 1019 3 N 0
Oggi h: 03:36 sereno Sereno 21 0 24 1019 5 N 0
Oggi h: 03:35 foschia Foschia 21 0 24 1019 5 N 0
Oggi h: 03:31 sereno Sereno 21 0 24 1019 2 N 0
Oggi h: 02:57 sereno Sereno 21 0 24 1019 5 N 0
Oggi h: 02:56 foschia Foschia 21 0 24 1019 5 N 0
Oggi h: 02:55 sereno Sereno 21 0 24 1019 2 N 0
Oggi h: 02:52 sereno Sereno 21 0 24 1019 2 N 0
Oggi h: 02:47 foschia Foschia 21 0 24 1019 5 N 0
Oggi h: 02:42 sereno Sereno 21 0 24 1019 5 N 0
Oggi h: 02:38 sereno Sereno 21 0 24 1019 5 N 0
Oggi h: 02:37 foschia Foschia 21 0 24 1019 5 N 0
Oggi h: 02:34 sereno Sereno 21 0 24 1019 5 N 0
Oggi h: 02:33 foschia Foschia 21 0 24 1019 5 N 0
Oggi h: 02:31 sereno Sereno 21 0 24 1019 3 N 0
Oggi h: 02:21 sereno Sereno 20 0 26 1019 5 N 0
Oggi h: 02:19 sereno Sereno 20 0 26 1019 3 N 0
Oggi h: 02:17 foschia Foschia 20 0 26 1019 5 N 0
Oggi h: 02:12 sereno Sereno 21 0 24 1019 2 N 0
Oggi h: 01:56 nebbia Nebbia 21 0 24 1019 2 N 0
Oggi h: 01:55 sereno Sereno 21 0 24 1019 5 N 0
Oggi h: 01:41 sereno Sereno 21 0 24 1019 5 N 0
Oggi h: 01:40 foschia Foschia 21 0 24 1019 5 N 0
Oggi h: 01:17 sereno Sereno 21 0 24 1020 5 N 0
Oggi h: 01:16 foschia Foschia 21 0 24 1020 5 N 0
Oggi h: 01:15 sereno Sereno 21 0 24 1020 3 N 0
Oggi h: 01:06 foschia Foschia 21 0 24 1019 2 N 0
Oggi h: 01:01 sereno Sereno 21 0 24 1019 2 N 0
Oggi h: 00:57 sereno Sereno 21 0 24 1019 2 N 0
Oggi h: 00:56 foschia Foschia 21 0 24 1019 2 N 0
Oggi h: 00:55 sereno Sereno 21 0 24 1019 6 N 0
Oggi h: 00:47 sereno Sereno 22 0 23 1019 6 N 0
Oggi h: 00:46 foschia Foschia 22 0 23 1019 6 N 0
Oggi h: 00:42 sereno Sereno 21 0 24 1019 2 N 0
Oggi h: 00:36 sereno Sereno 21 0 24 1019 5 N 0
Oggi h: 00:30 sereno Sereno 21 0 24 1019 5 N 0
Oggi h: 00:29 foschia Foschia 21 0 24 1019 5 N 0
Ieri h: 23:56 sereno Sereno 22 0 23 1020 11 N 0
Ieri h: 23:55 sereno Sereno 22 0 23 1019 11 N 0
Ieri h: 22:56 sereno Sereno 22 0 23 1020 10 N 0
Ieri h: 22:55 sereno Sereno 22 0 23 1020 13 N 0
Ieri h: 21:56 sereno Sereno 23 0 21 1020 10 N 0
Ieri h: 21:55 sereno Sereno 23 0 21 1020 10 N 0
Ieri h: 20:56 sereno Sereno 25 24 94 1020 10 N 5.5
Ieri h: 20:55 sereno Sereno 25 24 94 1020 10 E/SE 7.4
Ieri h: 19:56 poco_nuvoloso Poco Nuvoloso 26 23 83 1020 10 N 5.5
Ieri h: 19:55 poco_nuvoloso Poco Nuvoloso 26 23 83 1020 10 SE 7.4
Ieri h: 18:56 sereno Sereno 28 23 74 1020 10 SE 9.3
Ieri h: 18:55 sereno Sereno 28 23 74 1020 10 SE 9.3
Ieri h: 17:56 nuvoloso Nuvoloso 29 24 74 1020 10 E/SE 13
Ieri h: 17:55 nuvoloso Nuvoloso 29 24 74 1020 10 E/SE 14.8
Ieri h: 17:53 nuvoloso Nuvoloso 29 24 74 1020 10 SE 13
Ieri h: 17:41 molto_nuvoloso Molto Nuvoloso 29 24 74 1020 10 SE 14.8